Thunder radar more information blitzortung!


Radar de pluja more information rain snow radar


Visita la nostra xarxa de llocs de meteo:

Template documentation
and downloads

And another site



No particular awareness of the weather is required.    There are no Weather-warnings

Pagina Historial Weather Underground text

Diari Resum May 23, 2017 Unitats:  Mètric    Imperial   Tant
« Previous Dia
SegĂźent Dia »
Diari Setmana Mensual Anual Personalitzada
  Maxima: Minima: Media:
Temperatura: 30.3 °C 14.1 °C 23.6 °C
Punt de rosada: 15.8 °C 9.6 °C 11.9 °C
Humitat: 80 % 34 % 50 %
Wind Speed: 20.4 km/h 0.0 km/h 6.2 km/h
RĂ fegues de vent: 20.4 km/h - -
Vent:- - SSW
Pression baro: 1021.9 hPa 1016.8 hPa -
Precipitacions: 0.0 mm    
Historical Graphs
 
 
Dades de taula per May 23, 2017
Temps Temperatura Punt de rosada Pression baro Vent Wind Speed RĂ fegues de vent Humitat Rainfall Rate (Hourly)
00:00 17.9 °C 10.5 °C 1018.8 hPa NE 1.9 km/h 1.9 km/h 62 % 0.0 mm
00:05 17.8 °C 10.4 °C 1018.8 hPa Calm     62 % 0.0 mm
00:10 17.6 °C 10.2 °C 1018.8 hPa SW 1.9 km/h 1.9 km/h 62 % 0.0 mm
00:15 15.3 °C 11.7 °C 1019.9 hPa Calm     79 % 0.0 mm
00:25 15.2 °C 11.6 °C 1019.9 hPa Calm     79 % 0.0 mm
00:35 14.8 °C 11.0 °C 1019.9 hPa South 1.6 km/h 3.2 km/h 78 % 0.0 mm
00:45 14.4 °C 10.6 °C 1019.9 hPa SW 3.2 km/h 4.8 km/h 78 % 0.0 mm
00:55 14.2 °C 10.6 °C 1019.9 hPa SW 3.2 km/h 6.4 km/h 79 % 0.0 mm
01:05 14.5 °C 10.9 °C 1019.9 hPa WSW 1.6 km/h 3.2 km/h 79 % 0.0 mm
01:15 14.5 °C 11.1 °C 1019.9 hPa Calm   3.2 km/h 80 % 0.0 mm
01:25 14.3 °C 10.9 °C 1020.9 hPa Calm   3.2 km/h 80 % 0.0 mm
01:35 14.3 °C 10.9 °C 1020.9 hPa Calm   3.2 km/h 80 % 0.0 mm
01:45 14.1 °C 10.5 °C 1020.9 hPa WSW 3.2 km/h 3.2 km/h 79 % 0.0 mm
01:55 14.2 °C 10.6 °C 1020.9 hPa WSW 1.6 km/h 4.8 km/h 79 % 0.0 mm
02:05 14.2 °C 10.8 °C 1020.9 hPa SW 1.6 km/h 3.2 km/h 80 % 0.0 mm
02:15 14.3 °C 10.9 °C 1020.9 hPa SW 1.6 km/h 3.2 km/h 80 % 0.0 mm
02:25 14.7 °C 11.1 °C 1021.9 hPa WSW 3.2 km/h 3.2 km/h 79 % 0.0 mm
02:35 15.2 °C 11.6 °C 1021.9 hPa SW 3.2 km/h 3.2 km/h 79 % 0.0 mm
02:45 15.6 °C 11.8 °C 1021.9 hPa SW 1.6 km/h 3.2 km/h 78 % 0.0 mm
02:55 15.9 °C 11.9 °C 1020.9 hPa SW 3.2 km/h 3.2 km/h 77 % 0.0 mm
03:05 16.3 °C 12.3 °C 1020.9 hPa SW 3.2 km/h 3.2 km/h 77 % 0.0 mm
03:15 16.7 °C 12.4 °C 1021.9 hPa SW 1.6 km/h 3.2 km/h 76 % 0.0 mm
03:25 17.1 °C 12.6 °C 1021.9 hPa SW 1.6 km/h 3.2 km/h 75 % 0.0 mm
03:35 17.9 °C 13.2 °C 1021.9 hPa Calm   4.8 km/h 74 % 0.0 mm
03:45 18.4 °C 13.4 °C 1021.9 hPa SSW 1.6 km/h 3.2 km/h 73 % 0.0 mm
03:55 19.2 °C 13.8 °C 1021.9 hPa NE 1.6 km/h 4.8 km/h 71 % 0.0 mm
04:05 19.4 °C 13.6 °C 1021.9 hPa East 1.6 km/h 3.2 km/h 69 % 0.0 mm
04:15 19.8 °C 13.5 °C 1021.9 hPa ESE 3.2 km/h 6.4 km/h 67 % 0.0 mm
04:25 20.1 °C 13.6 °C 1021.9 hPa East 1.6 km/h 4.8 km/h 66 % 0.0 mm
04:35 21.1 °C 14.3 °C 1021.9 hPa East 1.6 km/h 3.2 km/h 65 % 0.0 mm
04:45 21.2 °C 14.1 °C 1021.9 hPa Calm   4.8 km/h 64 % 0.0 mm
04:55 22.0 °C 14.1 °C 1021.9 hPa SSW 3.2 km/h 4.8 km/h 61 % 0.0 mm
05:05 22.4 °C 14.3 °C 1021.9 hPa SSW 3.2 km/h 4.8 km/h 60 % 0.0 mm
05:15 22.8 °C 14.4 °C 1021.9 hPa SW 1.6 km/h 4.8 km/h 59 % 0.0 mm
05:25 23.3 °C 14.8 °C 1021.9 hPa SSW 1.6 km/h 3.2 km/h 59 % 0.0 mm
05:35 23.7 °C 14.7 °C 1021.9 hPa ENE 4.8 km/h 4.8 km/h 57 % 0.0 mm
05:45 24.3 °C 14.9 °C 1020.9 hPa NE 3.2 km/h 3.2 km/h 56 % 0.0 mm
10:49 24.7 °C 14.8 °C 1020.9 hPa SSW 5.3 km/h 5.3 km/h 54 % 0.0 mm
10:54 25.2 °C 14.9 °C 1021.9 hPa SW 3.7 km/h 3.7 km/h 53 % 0.0 mm
10:59 25.1 °C 14.6 °C 1021.9 hPa SE 3.7 km/h 3.7 km/h 52 % 0.0 mm
11:04 25.8 °C 15.2 °C 1021.9 hPa SW 3.7 km/h 3.7 km/h 52 % 0.0 mm
11:09 25.6 °C 14.4 °C 1020.9 hPa ESE 5.6 km/h 5.6 km/h 50 % 0.0 mm
11:14 26.0 °C 15.1 °C 1020.9 hPa WSW 3.7 km/h 3.7 km/h 51 % 0.0 mm
11:19 25.5 °C 14.6 °C 1020.9 hPa WSW 9.3 km/h 9.3 km/h 51 % 0.0 mm
11:24 25.5 °C 14.6 °C 1021.9 hPa SW 9.3 km/h 9.3 km/h 51 % 0.0 mm
11:29 25.8 °C 14.6 °C 1021.9 hPa WNW 7.4 km/h 7.4 km/h 50 % 0.0 mm
11:34 26.5 °C 15.2 °C 1021.9 hPa WSW 5.6 km/h 5.6 km/h 50 % 0.0 mm
11:39 26.3 °C 15.1 °C 1021.9 hPa SW 7.4 km/h 7.4 km/h 50 % 0.0 mm
11:44 26.5 °C 14.9 °C 1021.9 hPa WSW 5.6 km/h 5.6 km/h 49 % 0.0 mm
11:49 27.1 °C 15.2 °C 1021.9 hPa ESE 3.7 km/h 3.7 km/h 48 % 0.0 mm
11:54 27.4 °C 15.1 °C 1021.9 hPa South 5.6 km/h 5.6 km/h 47 % 0.0 mm
11:59 27.2 °C 14.9 °C 1021.9 hPa North 5.6 km/h 5.6 km/h 47 % 0.0 mm
12:04 27.6 °C 14.9 °C 1021.9 hPa SW 3.7 km/h 3.7 km/h 46 % 0.0 mm
12:09 27.4 °C 14.8 °C 1020.9 hPa SW 7.4 km/h 7.4 km/h 46 % 0.0 mm
12:14 27.7 °C 15.1 °C 1020.9 hPa West 3.7 km/h 3.7 km/h 46 % 0.0 mm
12:19 28.5 °C 15.8 °C 1020.9 hPa WNW 7.4 km/h 7.4 km/h 46 % 0.0 mm
12:24 28.8 °C 15.7 °C 1019.9 hPa ESE 2.3 km/h 2.3 km/h 45 % 0.0 mm
12:29 28.7 °C 15.6 °C 1019.9 hPa South 3.7 km/h 3.7 km/h 45 % 0.0 mm
12:34 29.2 °C 15.3 °C 1019.9 hPa SSW 3.7 km/h 3.7 km/h 43 % 0.0 mm
12:35 29.2 °C 15.3 °C 1019.9 hPa SSE 3.7 km/h 3.7 km/h 43 % 0.0 mm
12:40 29.3 °C 15.4 °C 1019.9 hPa SW 3.7 km/h 3.7 km/h 43 % 0.0 mm
12:45 29.3 °C 14.3 °C 1019.9 hPa SSW 11.1 km/h 11.1 km/h 40 % 0.0 mm
12:50 29.0 °C 14.1 °C 1019.9 hPa East 5.6 km/h 5.6 km/h 40 % 0.0 mm
12:55 28.6 °C 14.4 °C 1019.9 hPa South 3.7 km/h 3.7 km/h 42 % 0.0 mm
13:00 29.3 °C 14.7 °C 1019.9 hPa West 7.4 km/h 7.4 km/h 41 % 0.0 mm
13:05 29.8 °C 15.1 °C 1019.9 hPa West 5.6 km/h 5.6 km/h 41 % 0.0 mm
13:10 29.3 °C 14.3 °C 1019.9 hPa WSW 7.4 km/h 7.4 km/h 40 % 0.0 mm
13:15 29.0 °C 13.7 °C 1019.9 hPa WSW 5.6 km/h 5.6 km/h 39 % 0.0 mm
13:20 28.8 °C 13.4 °C 1019.9 hPa ENE 3.7 km/h 3.7 km/h 39 % 0.0 mm
13:25 28.1 °C 12.8 °C 1019.9 hPa East 7.4 km/h 7.4 km/h 39 % 0.0 mm
13:30 28.3 °C 13.4 °C 1019.9 hPa ENE 7.4 km/h 7.4 km/h 40 % 0.0 mm
13:35 29.0 °C 13.7 °C 1019.9 hPa SW 3.7 km/h 3.7 km/h 39 % 0.0 mm
13:37 29.1 °C 13.7 °C 1019.9 hPa SW 9.3 km/h 9.3 km/h 39 % 0.0 mm
13:42 29.8 °C 13.9 °C 1019.9 hPa SW 10.0 km/h 10.0 km/h 38 % 0.0 mm
13:47 29.9 °C 13.6 °C 1019.9 hPa WSW 9.3 km/h 9.3 km/h 37 % 0.0 mm
13:52 30.0 °C 13.7 °C 1019.9 hPa SW 5.8 km/h 5.8 km/h 37 % 0.0 mm
13:57 29.9 °C 13.6 °C 1019.9 hPa WSW 7.4 km/h 7.4 km/h 37 % 0.0 mm
14:02 29.5 °C 13.3 °C 1019.9 hPa NW 5.6 km/h 5.6 km/h 37 % 0.0 mm
14:07 29.4 °C 12.8 °C 1019.9 hPa SE 7.4 km/h 7.4 km/h 36 % 0.0 mm
14:12 30.1 °C 12.9 °C 1019.9 hPa ESE 6.1 km/h 6.1 km/h 35 % 0.0 mm
14:17 29.0 °C 11.6 °C 1019.9 hPa ESE 10.0 km/h 10.0 km/h 34 % 0.0 mm
14:22 28.6 °C 12.1 °C 1019.9 hPa South 11.1 km/h 11.1 km/h 36 % 0.0 mm
14:27 29.7 °C 12.2 °C 1019.9 hPa SSW 7.4 km/h 7.4 km/h 34 % 0.0 mm
14:32 30.0 °C 12.4 °C 1019.9 hPa NW 5.6 km/h 5.6 km/h 34 % 0.0 mm
14:37 29.6 °C 12.9 °C 1019.9 hPa ESE 14.8 km/h 14.8 km/h 36 % 0.0 mm
14:42 28.6 °C 12.1 °C 1019.9 hPa NE 9.3 km/h 9.3 km/h 36 % 0.0 mm
14:47 28.6 °C 12.9 °C 1019.9 hPa ENE 18.5 km/h 18.5 km/h 38 % 0.0 mm
14:52 28.4 °C 12.7 °C 1019.9 hPa East 17.2 km/h 17.2 km/h 38 % 0.0 mm
14:57 28.7 °C 13.0 °C 1019.9 hPa SE 3.7 km/h 3.7 km/h 38 % 0.0 mm
15:02 28.3 °C 12.6 °C 1019.9 hPa SE 7.4 km/h 7.4 km/h 38 % 0.0 mm
15:07 28.5 °C 12.8 °C 1018.8 hPa SSW 9.3 km/h 9.3 km/h 38 % 0.0 mm
15:12 28.7 °C 13.0 °C 1018.8 hPa NE 5.6 km/h 5.6 km/h 38 % 0.0 mm
15:17 28.4 °C 12.7 °C 1018.8 hPa ESE 3.7 km/h 3.7 km/h 38 % 0.0 mm
15:22 28.6 °C 12.9 °C 1018.8 hPa SW 5.6 km/h 5.6 km/h 38 % 0.0 mm
15:27 29.7 °C 13.4 °C 1018.8 hPa SW 10.8 km/h 10.8 km/h 37 % 0.0 mm
15:32 29.9 °C 13.6 °C 1018.8 hPa South 16.7 km/h 16.7 km/h 37 % 0.0 mm
15:37 30.3 °C 13.1 °C 1018.8 hPa SSE 14.8 km/h 14.8 km/h 35 % 0.0 mm
15:42 30.0 °C 12.9 °C 1018.8 hPa SSW 11.4 km/h 11.4 km/h 35 % 0.0 mm
15:47 30.2 °C 13.1 °C 1018.8 hPa SSW 14.8 km/h 14.8 km/h 35 % 0.0 mm
15:52 30.1 °C 12.9 °C 1018.8 hPa South 11.1 km/h 11.1 km/h 35 % 0.0 mm
15:57 29.8 °C 13.1 °C 1018.8 hPa SSE 20.4 km/h 20.4 km/h 36 % 0.0 mm
16:02 29.8 °C 12.7 °C 1018.8 hPa SW 16.7 km/h 16.7 km/h 35 % 0.0 mm
16:07 29.6 °C 12.9 °C 1018.8 hPa WSW 14.8 km/h 14.8 km/h 36 % 0.0 mm
16:12 29.2 °C 12.2 °C 1018.8 hPa South 14.8 km/h 14.8 km/h 35 % 0.0 mm
16:17 29.3 °C 12.3 °C 1018.8 hPa SSW 16.7 km/h 16.7 km/h 35 % 0.0 mm
16:22 29.0 °C 12.0 °C 1018.8 hPa South 14.8 km/h 14.8 km/h 35 % 0.0 mm
16:27 29.0 °C 12.0 °C 1018.8 hPa WSW 13.7 km/h 13.7 km/h 35 % 0.0 mm
16:32 29.0 °C 12.0 °C 1018.8 hPa SW 13.0 km/h 13.0 km/h 35 % 0.0 mm
16:37 29.0 °C 12.0 °C 1018.8 hPa South 9.3 km/h 9.3 km/h 35 % 0.0 mm
16:42 29.0 °C 12.0 °C 1018.8 hPa SW 7.4 km/h 7.4 km/h 35 % 0.0 mm
16:47 29.2 °C 12.2 °C 1018.8 hPa SW 10.3 km/h 10.3 km/h 35 % 0.0 mm
16:52 29.0 °C 12.0 °C 1018.8 hPa SW 12.6 km/h 12.6 km/h 35 % 0.0 mm
16:57 28.7 °C 12.2 °C 1018.8 hPa WSW 14.8 km/h 14.8 km/h 36 % 0.0 mm
17:02 28.7 °C 11.7 °C 1018.8 hPa West 9.3 km/h 9.3 km/h 35 % 0.0 mm
17:07 28.5 °C 11.6 °C 1017.8 hPa SW 11.1 km/h 11.1 km/h 35 % 0.0 mm
17:12 28.4 °C 11.4 °C 1017.8 hPa WSW 14.8 km/h 14.8 km/h 35 % 0.0 mm
17:17 28.5 °C 12.0 °C 1017.8 hPa WNW 9.3 km/h 9.3 km/h 36 % 0.0 mm
17:18 28.4 °C 11.9 °C 1017.8 hPa SW 9.3 km/h 9.3 km/h 36 % 0.0 mm
17:23 28.0 °C 11.1 °C 1017.8 hPa WSW 14.8 km/h 14.8 km/h 35 % 0.0 mm
17:28 27.6 °C 10.8 °C 1017.8 hPa SSW 13.0 km/h 13.0 km/h 35 % 0.0 mm
17:33 27.6 °C 11.2 °C 1017.8 hPa WSW 13.0 km/h 13.0 km/h 36 % 0.0 mm
17:34 27.6 °C 11.2 °C 1017.8 hPa SSW 13.0 km/h 13.0 km/h 36 % 0.0 mm
17:39 27.5 °C 10.7 °C 1018.8 hPa SSW 16.7 km/h 16.7 km/h 35 % 0.0 mm
17:44 27.5 °C 10.7 °C 1018.8 hPa WSW 13.0 km/h 13.0 km/h 35 % 0.0 mm
17:49 27.3 °C 10.9 °C 1018.8 hPa SSW 16.7 km/h 16.7 km/h 36 % 0.0 mm
17:54 27.5 °C 11.1 °C 1017.8 hPa SW 9.3 km/h 9.3 km/h 36 % 0.0 mm
17:59 27.6 °C 11.2 °C 1017.8 hPa SSW 11.1 km/h 11.1 km/h 36 % 0.0 mm
18:04 27.3 °C 10.9 °C 1017.8 hPa SW 14.8 km/h 14.8 km/h 36 % 0.0 mm
18:09 27.2 °C 10.8 °C 1017.8 hPa SW 7.4 km/h 7.4 km/h 36 % 0.0 mm
18:14 27.0 °C 10.2 °C 1017.8 hPa SSW 15.1 km/h 15.1 km/h 35 % 0.0 mm
18:19 26.9 °C 10.6 °C 1017.8 hPa SW 12.2 km/h 12.2 km/h 36 % 0.0 mm
18:24 27.0 °C 10.7 °C 1017.8 hPa SW 11.1 km/h 11.1 km/h 36 % 0.0 mm
18:29 26.9 °C 11.0 °C 1017.8 hPa West 11.1 km/h 11.1 km/h 37 % 0.0 mm
18:34 26.7 °C 10.4 °C 1017.8 hPa SW 14.8 km/h 14.8 km/h 36 % 0.0 mm
18:39 26.5 °C 10.2 °C 1017.8 hPa SW 11.1 km/h 11.1 km/h 36 % 0.0 mm
18:44 26.7 °C 10.4 °C 1017.8 hPa WSW 7.4 km/h 7.4 km/h 36 % 0.0 mm
18:49 26.8 °C 10.9 °C 1017.8 hPa SW 5.6 km/h 5.6 km/h 37 % 0.0 mm
18:54 26.8 °C 10.9 °C 1017.8 hPa South 5.6 km/h 5.6 km/h 37 % 0.0 mm
18:59 26.4 °C 10.1 °C 1017.8 hPa WSW 11.1 km/h 11.1 km/h 36 % 0.0 mm
19:05 26.4 °C 10.6 °C 1017.8 hPa SW 3.2 km/h 11.3 km/h 37 % 0.0 mm
19:10 26.5 °C 10.7 °C 1017.8 hPa SW 4.8 km/h 8.0 km/h 37 % 0.0 mm
19:15 26.2 °C 10.3 °C 1017.8 hPa SW 8.0 km/h 12.9 km/h 37 % 0.0 mm
19:20 26.0 °C 10.6 °C 1017.8 hPa SW 3.2 km/h 11.3 km/h 38 % 0.0 mm
19:25 25.6 °C 10.2 °C 1017.8 hPa SW 14.8 km/h 14.8 km/h 38 % 0.0 mm
19:30 25.3 °C 9.9 °C 1017.8 hPa SW 9.3 km/h 9.3 km/h 38 % 0.0 mm
19:35 25.2 °C 9.9 °C 1017.8 hPa WSW 11.1 km/h 11.1 km/h 38 % 0.0 mm
19:40 25.2 °C 9.9 °C 1017.8 hPa SW 7.4 km/h 7.4 km/h 38 % 0.0 mm
19:45 18.6 °C 11.2 °C 1019.9 hPa WSW 3.2 km/h 4.8 km/h 62 % 0.0 mm
19:46 25.1 °C 9.8 °C 1017.8 hPa SW 5.6 km/h 5.6 km/h 38 % 0.0 mm
19:51 25.0 °C 10.1 °C 1017.8 hPa SW 7.4 km/h 7.4 km/h 39 % 0.0 mm
19:55 18.5 °C 11.3 °C 1019.9 hPa WSW 1.6 km/h 4.8 km/h 63 % 0.0 mm
19:56 24.7 °C 10.2 °C 1017.8 hPa SW 9.3 km/h 9.3 km/h 40 % 0.0 mm
20:01 24.5 °C 10.0 °C 1017.8 hPa SW 7.4 km/h 7.4 km/h 40 % 0.0 mm
20:05 18.4 °C 11.4 °C 1019.9 hPa WSW 1.6 km/h 3.2 km/h 64 % 0.0 mm
20:06 24.3 °C 9.8 °C 1017.8 hPa SSW 7.4 km/h 7.4 km/h 40 % 0.0 mm
20:11 24.2 °C 10.1 °C 1017.8 hPa SSW 11.1 km/h 11.1 km/h 41 % 0.0 mm
20:15 18.3 °C 11.1 °C 1019.9 hPa SW 3.2 km/h 3.2 km/h 63 % 0.0 mm
20:16 23.9 °C 9.8 °C 1017.8 hPa SW 11.1 km/h 11.1 km/h 41 % 0.0 mm
20:21 23.8 °C 9.8 °C 1017.8 hPa SW 9.3 km/h 9.3 km/h 41 % 0.0 mm
20:25 18.2 °C 11.3 °C 1019.9 hPa Calm   3.2 km/h 64 % 0.0 mm
20:26 23.5 °C 9.8 °C 1016.8 hPa SW 7.4 km/h 7.4 km/h 42 % 0.0 mm
20:31 23.2 °C 9.6 °C 1016.8 hPa SW 7.4 km/h 7.4 km/h 42 % 0.0 mm
20:35 18.2 °C 11.3 °C 1019.9 hPa West 1.6 km/h 1.6 km/h 64 % 0.0 mm
20:36 23.0 °C 9.7 °C 1016.8 hPa SW 14.0 km/h 14.0 km/h 43 % 0.0 mm
20:41 22.9 °C 10.0 °C 1017.8 hPa SSW 11.4 km/h 11.4 km/h 44 % 0.0 mm
20:45 18.2 °C 11.5 °C 1019.9 hPa West 1.6 km/h 1.6 km/h 65 % 0.0 mm
20:46 22.7 °C 10.2 °C 1017.8 hPa SW 9.3 km/h 9.3 km/h 45 % 0.0 mm
20:51 22.5 °C 9.9 °C 1017.8 hPa West 9.3 km/h 9.3 km/h 45 % 0.0 mm
20:55 18.1 °C 11.4 °C 1019.9 hPa Calm   1.6 km/h 65 % 0.0 mm
20:56 22.3 °C 10.1 °C 1017.8 hPa West 9.3 km/h 9.3 km/h 46 % 0.0 mm
21:01 22.2 °C 10.0 °C 1017.8 hPa South 5.6 km/h 5.6 km/h 46 % 0.0 mm
21:05 18.0 °C 11.3 °C 1019.9 hPa WNW 1.6 km/h 1.6 km/h 65 % 0.0 mm
21:06 22.0 °C 10.2 °C 1017.8 hPa SW 9.3 km/h 9.3 km/h 47 % 0.0 mm
21:11 21.9 °C 10.1 °C 1018.8 hPa SW 9.3 km/h 9.3 km/h 47 % 0.0 mm
21:15 17.8 °C 11.3 °C 1019.9 hPa Calm     66 % 0.0 mm
21:16 21.7 °C 10.2 °C 1018.8 hPa SW 9.3 km/h 9.3 km/h 48 % 0.0 mm
21:21 21.6 °C 10.1 °C 1018.8 hPa SW 5.6 km/h 5.6 km/h 48 % 0.0 mm
21:25 17.6 °C 11.2 °C 1019.9 hPa Calm     66 % 0.0 mm
21:26 21.5 °C 10.0 °C 1018.8 hPa WSW 5.6 km/h 5.6 km/h 48 % 0.0 mm
21:31 21.3 °C 10.2 °C 1018.8 hPa WSW 5.6 km/h 5.6 km/h 49 % 0.0 mm
21:35 17.7 °C 11.5 °C 1019.9 hPa Calm   1.6 km/h 67 % 0.0 mm
21:36 21.2 °C 10.1 °C 1018.8 hPa SW 5.6 km/h 5.6 km/h 49 % 0.0 mm
21:41 21.1 °C 9.9 °C 1018.8 hPa South 5.3 km/h 5.3 km/h 49 % 0.0 mm
21:45 17.1 °C 10.7 °C 1019.9 hPa NNW 1.6 km/h 3.2 km/h 66 % 0.0 mm
21:46 21.0 °C 10.2 °C 1018.8 hPa South 5.6 km/h 5.6 km/h 50 % 0.0 mm
21:51 20.8 °C 10.3 °C 1018.8 hPa SSW 4.2 km/h 4.2 km/h 51 % 0.0 mm
21:55 17.0 °C 10.6 °C 1019.9 hPa WSW 1.6 km/h 3.2 km/h 66 % 0.0 mm
21:56 20.7 °C 10.2 °C 1018.8 hPa WSW 5.6 km/h 5.6 km/h 51 % 0.0 mm
22:01 20.6 °C 10.4 °C 1018.8 hPa SSW 3.9 km/h 3.9 km/h 52 % 0.0 mm
22:05 17.1 °C 10.7 °C 1019.9 hPa WSW 1.6 km/h 3.2 km/h 66 % 0.0 mm
22:06 20.5 °C 10.3 °C 1018.8 hPa WSW 3.7 km/h 3.7 km/h 52 % 0.0 mm
22:07 20.5 °C 10.3 °C 1018.8 hPa West 3.9 km/h 3.9 km/h 52 % 0.0 mm
22:12 20.5 °C 10.3 °C 1018.8 hPa WSW 1.9 km/h   52 % 0.0 mm
22:15 17.2 °C 10.8 °C 1019.9 hPa WSW 1.6 km/h 3.2 km/h 66 % 0.0 mm
22:17 20.4 °C 10.5 °C 1018.8 hPa West 2.6 km/h 2.6 km/h 53 % 0.0 mm
22:22 20.3 °C 10.4 °C 1018.8 hPa Calm     53 % 0.0 mm
22:25 17.2 °C 10.8 °C 1019.9 hPa Calm   1.6 km/h 66 % 0.0 mm
22:27 20.3 °C 10.4 °C 1018.8 hPa SSW 3.7 km/h 3.7 km/h 53 % 0.0 mm
22:32 20.2 °C 10.3 °C 1018.8 hPa SW 4.7 km/h 4.7 km/h 53 % 0.0 mm
22:35 17.4 °C 11.0 °C 1019.9 hPa SW 1.6 km/h 1.6 km/h 66 % 0.0 mm
22:37 20.2 °C 10.3 °C 1018.8 hPa SW 6.1 km/h 6.1 km/h 53 % 0.0 mm
22:42 20.2 °C 10.3 °C 1018.8 hPa SW 4.2 km/h 4.2 km/h 53 % 0.0 mm
22:45 17.4 °C 11.0 °C 1019.9 hPa Calm   1.6 km/h 66 % 0.0 mm
22:47 20.1 °C 10.2 °C 1018.8 hPa SW 5.6 km/h 5.6 km/h 53 % 0.0 mm
22:52 20.0 °C 10.4 °C 1018.8 hPa WSW 3.2 km/h 3.2 km/h 54 % 0.0 mm
22:55 17.4 °C 11.0 °C 1018.8 hPa Calm     66 % 0.0 mm
22:57 20.0 °C 10.4 °C 1018.8 hPa West 1.9 km/h 1.9 km/h 54 % 0.0 mm
23:02 19.9 °C 10.3 °C 1018.8 hPa WSW 3.9 km/h 3.9 km/h 54 % 0.0 mm
23:05 17.3 °C 10.9 °C 1018.8 hPa Calm     66 % 0.0 mm
23:07 19.9 °C 10.3 °C 1019.9 hPa SSW 3.7 km/h 3.7 km/h 54 % 0.0 mm
23:12 19.8 °C 10.5 °C 1019.9 hPa WSW 3.7 km/h 3.7 km/h 55 % 0.0 mm
23:15 17.1 °C 10.9 °C 1019.9 hPa Calm     67 % 0.0 mm
23:17 19.7 °C 10.4 °C 1019.9 hPa SW 3.7 km/h 3.9 km/h 55 % 0.0 mm
23:22 19.6 °C 10.3 °C 1019.9 hPa WSW 3.9 km/h 3.9 km/h 55 % 0.0 mm
23:25 16.9 °C 10.9 °C 1019.9 hPa Calm   1.6 km/h 68 % 0.0 mm
23:27 19.5 °C 10.5 °C 1019.9 hPa SW 3.7 km/h 3.7 km/h 56 % 0.0 mm
23:32 19.5 °C 10.5 °C 1019.9 hPa SW 3.7 km/h 3.7 km/h 56 % 0.0 mm
23:35 16.5 °C 10.6 °C 1019.9 hPa SW 1.6 km/h 3.2 km/h 68 % 0.0 mm
23:37 19.4 °C 10.7 °C 1018.8 hPa WSW 1.9 km/h 1.9 km/h 57 % 0.0 mm
23:42 19.3 °C 10.6 °C 1018.8 hPa WSW 3.9 km/h 4.7 km/h 57 % 0.0 mm
23:45 16.6 °C 10.9 °C 1019.9 hPa Calm     69 % 0.0 mm
23:47 19.3 °C 10.6 °C 1018.8 hPa West 4.7 km/h 4.7 km/h 57 % 0.0 mm
23:52 19.3 °C 10.8 °C 1019.9 hPa SSW 3.7 km/h 3.7 km/h 58 % 0.0 mm
23:55 16.6 °C 10.9 °C 1019.9 hPa Calm     69 % 0.0 mm
23:57 19.2 °C 10.7 °C 1019.9 hPa SSW 3.7 km/h 3.7 km/h 58 % 0.0 mm
Meteo Sesrovires
Elogis d' Weather Underground - 3.75 mb

Guio original per  Jim McMurry - jmcmurry@mwt.net Adaptat per a la plantilla per  Wim van der Kuil - Leuven-Template.eu

Trobareu la nostra informacio del temps tambe a:

Weather Underground

AWEKAS